sensor_id;sensor_type;location;lat;lon;timestamp;pressure;altitude;pressure_sealevel;temperature;humidity
10348;BME280;5220;43.192;23.284;2022-09-09T00:01:22;96978.22;;;21.22;74.46
10348;BME280;5220;43.192;23.284;2022-09-09T00:04:09;96977.84;;;21.25;74.34
10348;BME280;5220;43.192;23.284;2022-09-09T00:06:45;96964.63;;;21.25;74.02
10348;BME280;5220;43.192;23.284;2022-09-09T00:09:16;96966.72;;;21.30;73.84
10348;BME280;5220;43.192;23.284;2022-09-09T00:11:46;96958.97;;;21.28;74.03
10348;BME280;5220;43.192;23.284;2022-09-09T00:14:23;96964.53;;;21.33;74.16
10348;BME280;5220;43.192;23.284;2022-09-09T00:16:56;96968.22;;;21.32;73.90
10348;BME280;5220;43.192;23.284;2022-09-09T00:19:31;96962.25;;;21.30;73.85
10348;BME280;5220;43.192;23.284;2022-09-09T00:22:07;96964.44;;;21.27;73.80
10348;BME280;5220;43.192;23.284;2022-09-09T00:27:57;96957.69;;;21.24;73.85
10348;BME280;5220;43.192;23.284;2022-09-09T00:30:29;96952.09;;;21.19;74.02
10348;BME280;5220;43.192;23.284;2022-09-09T00:33:17;96947.63;;;21.20;73.60
10348;BME280;5220;43.192;23.284;2022-09-09T00:35:49;96946.00;;;21.19;73.72
10348;BME280;5220;43.192;23.284;2022-09-09T00:38:19;96954.91;;;21.18;73.20
10348;BME280;5220;43.192;23.284;2022-09-09T00:40:50;96945.50;;;21.15;73.33
10348;BME280;5220;43.192;23.284;2022-09-09T00:43:28;96943.84;;;21.14;73.67
10348;BME280;5220;43.192;23.284;2022-09-09T00:49:23;96935.66;;;21.09;73.93
10348;BME280;5220;43.192;23.284;2022-09-09T00:51:59;96935.91;;;21.14;73.84
10348;BME280;5220;43.192;23.284;2022-09-09T00:54:54;96938.75;;;21.13;73.88
10348;BME280;5220;43.192;23.284;2022-09-09T00:57:26;96937.31;;;21.10;73.42
10348;BME280;5220;43.192;23.284;2022-09-09T01:00:02;96929.38;;;21.10;74.20
10348;BME280;5220;43.192;23.284;2022-09-09T01:02:39;96947.88;;;21.10;73.88
10348;BME280;5220;43.192;23.284;2022-09-09T01:05:19;96944.53;;;21.08;73.58
10348;BME280;5220;43.192;23.284;2022-09-09T01:08:07;96933.81;;;21.10;73.60
10348;BME280;5220;43.192;23.284;2022-09-09T01:10:54;96943.97;;;20.98;73.52
10348;BME280;5220;43.192;23.284;2022-09-09T01:13:24;96936.69;;;21.00;73.88
10348;BME280;5220;43.192;23.284;2022-09-09T01:15:53;96943.44;;;21.03;74.10
10348;BME280;5220;43.192;23.284;2022-09-09T01:18:26;96942.44;;;21.04;73.93
10348;BME280;5220;43.192;23.284;2022-09-09T01:21:04;96946.06;;;21.03;74.07
10348;BME280;5220;43.192;23.284;2022-09-09T01:27:01;96949.16;;;20.91;73.94
10348;BME280;5220;43.192;23.284;2022-09-09T01:30:08;96957.56;;;20.95;74.00
10348;BME280;5220;43.192;23.284;2022-09-09T01:32:41;96965.00;;;20.91;74.09
10348;BME280;5220;43.192;23.284;2022-09-09T01:38:31;96957.00;;;20.77;74.37
10348;BME280;5220;43.192;23.284;2022-09-09T01:40:59;96959.28;;;20.80;74.25
10348;BME280;5220;43.192;23.284;2022-09-09T01:46:35;96953.41;;;20.70;74.48
10348;BME280;5220;43.192;23.284;2022-09-09T01:49:04;96957.00;;;20.77;74.47
10348;BME280;5220;43.192;23.284;2022-09-09T01:51:32;96953.84;;;20.81;74.51
10348;BME280;5220;43.192;23.284;2022-09-09T01:57:25;96953.47;;;20.84;73.94
10348;BME280;5220;43.192;23.284;2022-09-09T02:00:01;96944.72;;;20.84;74.14
10348;BME280;5220;43.192;23.284;2022-09-09T02:02:36;96950.69;;;20.86;74.25
10348;BME280;5220;43.192;23.284;2022-09-09T02:05:15;96955.97;;;20.86;73.81
10348;BME280;5220;43.192;23.284;2022-09-09T02:07:47;96959.88;;;20.90;73.91
10348;BME280;5220;43.192;23.284;2022-09-09T02:10:19;96965.84;;;20.92;74.01
10348;BME280;5220;43.192;23.284;2022-09-09T02:12:51;96958.53;;;20.94;73.87
10348;BME280;5220;43.192;23.284;2022-09-09T02:15:23;96959.53;;;20.93;73.97
10348;BME280;5220;43.192;23.284;2022-09-09T02:17:56;96954.91;;;20.95;73.99
10348;BME280;5220;43.192;23.284;2022-09-09T02:20:25;96960.72;;;20.90;74.04
10348;BME280;5220;43.192;23.284;2022-09-09T02:22:53;96962.03;;;20.95;74.14
10348;BME280;5220;43.192;23.284;2022-09-09T02:25:25;96965.66;;;20.93;73.49
10348;BME280;5220;43.192;23.284;2022-09-09T02:27:53;96959.88;;;20.90;73.54
10348;BME280;5220;43.192;23.284;2022-09-09T02:30:20;96958.25;;;20.89;73.72
10348;BME280;5220;43.192;23.284;2022-09-09T02:32:48;96956.75;;;20.86;73.92
10348;BME280;5220;43.192;23.284;2022-09-09T02:35:20;96956.59;;;20.88;73.51
10348;BME280;5220;43.192;23.284;2022-09-09T02:37:51;96958.28;;;20.81;73.93
10348;BME280;5220;43.192;23.284;2022-09-09T02:40:20;96957.66;;;20.79;74.35
10348;BME280;5220;43.192;23.284;2022-09-09T02:42:48;96967.56;;;20.77;74.10
10348;BME280;5220;43.192;23.284;2022-09-09T02:45:18;96967.28;;;20.72;74.21
10348;BME280;5220;43.192;23.284;2022-09-09T02:47:50;96975.22;;;20.72;74.00
10348;BME280;5220;43.192;23.284;2022-09-09T02:50:23;96975.06;;;20.73;73.79
10348;BME280;5220;43.192;23.284;2022-09-09T02:53:01;96972.41;;;20.73;73.53
10348;BME280;5220;43.192;23.284;2022-09-09T02:55:39;96972.56;;;20.72;73.75
10348;BME280;5220;43.192;23.284;2022-09-09T02:58:09;96961.16;;;20.71;73.44
10348;BME280;5220;43.192;23.284;2022-09-09T03:00:38;96966.28;;;20.73;73.78
10348;BME280;5220;43.192;23.284;2022-09-09T03:03:06;96971.59;;;20.73;73.65
10348;BME280;5220;43.192;23.284;2022-09-09T03:05:35;96972.44;;;20.65;73.71
10348;BME280;5220;43.192;23.284;2022-09-09T03:08:02;96978.22;;;20.69;73.48
10348;BME280;5220;43.192;23.284;2022-09-09T03:10:29;96979.03;;;20.69;73.60
10348;BME280;5220;43.192;23.284;2022-09-09T03:12:56;96968.81;;;20.66;73.71
10348;BME280;5220;43.192;23.284;2022-09-09T03:15:22;96975.44;;;20.62;74.05
10348;BME280;5220;43.192;23.284;2022-09-09T03:17:49;96981.19;;;20.66;74.21
10348;BME280;5220;43.192;23.284;2022-09-09T03:20:16;96975.28;;;20.64;74.15
10348;BME280;5220;43.192;23.284;2022-09-09T03:22:44;96974.59;;;20.62;74.04
10348;BME280;5220;43.192;23.284;2022-09-09T03:25:11;96969.31;;;20.62;74.48
10348;BME280;5220;43.192;23.284;2022-09-09T03:27:38;96977.31;;;20.54;74.41
10348;BME280;5220;43.192;23.284;2022-09-09T03:30:06;96978.59;;;20.58;74.35
10348;BME280;5220;43.192;23.284;2022-09-09T03:32:33;96975.63;;;20.53;74.32
10348;BME280;5220;43.192;23.284;2022-09-09T03:35:10;96986.41;;;20.51;74.14
10348;BME280;5220;43.192;23.284;2022-09-09T03:37:37;96978.81;;;20.48;74.31
10348;BME280;5220;43.192;23.284;2022-09-09T03:40:06;96982.59;;;20.54;74.43
10348;BME280;5220;43.192;23.284;2022-09-09T03:42:33;96985.03;;;20.55;74.29
10348;BME280;5220;43.192;23.284;2022-09-09T03:45:02;96990.16;;;20.57;73.88
10348;BME280;5220;43.192;23.284;2022-09-09T03:47:29;96992.94;;;20.63;72.79
10348;BME280;5220;43.192;23.284;2022-09-09T03:49:56;96984.34;;;20.61;70.89
10348;BME280;5220;43.192;23.284;2022-09-09T03:52:22;96982.50;;;20.70;68.78
10348;BME280;5220;43.192;23.284;2022-09-09T03:54:51;96970.81;;;20.87;68.38
10348;BME280;5220;43.192;23.284;2022-09-09T03:57:19;96975.66;;;21.06;68.42
10348;BME280;5220;43.192;23.284;2022-09-09T03:59:47;96979.28;;;21.13;67.46
10348;BME280;5220;43.192;23.284;2022-09-09T04:02:13;96977.63;;;21.35;65.06
10348;BME280;5220;43.192;23.284;2022-09-09T04:04:50;96979.81;;;21.46;64.88
10348;BME280;5220;43.192;23.284;2022-09-09T04:07:19;96969.97;;;21.55;65.76
10348;BME280;5220;43.192;23.284;2022-09-09T04:09:45;96974.38;;;21.62;65.31
10348;BME280;5220;43.192;23.284;2022-09-09T04:12:12;96978.13;;;21.68;64.39
10348;BME280;5220;43.192;23.284;2022-09-09T04:14:43;96969.41;;;21.82;62.84
10348;BME280;5220;43.192;23.284;2022-09-09T04:17:09;96977.28;;;21.90;63.20
10348;BME280;5220;43.192;23.284;2022-09-09T04:19:36;96980.19;;;21.95;63.42
10348;BME280;5220;43.192;23.284;2022-09-09T04:22:03;96982.94;;;22.02;64.11
10348;BME280;5220;43.192;23.284;2022-09-09T04:30:47;96988.06;;;22.18;62.94
10348;BME280;5220;43.192;23.284;2022-09-09T04:33:14;96969.81;;;22.23;62.30
10348;BME280;5220;43.192;23.284;2022-09-09T04:35:44;96971.34;;;22.32;62.22
10348;BME280;5220;43.192;23.284;2022-09-09T04:38:11;96968.59;;;22.40;62.78
10348;BME280;5220;43.192;23.284;2022-09-09T04:40:38;96964.72;;;22.42;62.13
10348;BME280;5220;43.192;23.284;2022-09-09T04:43:08;96971.78;;;22.50;62.48
10348;BME280;5220;43.192;23.284;2022-09-09T04:45:35;96979.34;;;22.53;62.42
10348;BME280;5220;43.192;23.284;2022-09-09T04:48:04;96972.84;;;22.56;63.90
10348;BME280;5220;43.192;23.284;2022-09-09T04:50:30;96975.72;;;22.54;64.43
10348;BME280;5220;43.192;23.284;2022-09-09T04:53:00;96972.41;;;22.52;65.23
10348;BME280;5220;43.192;23.284;2022-09-09T04:55:26;96974.22;;;22.51;65.60
10348;BME280;5220;43.192;23.284;2022-09-09T04:57:54;96982.56;;;22.48;66.27
10348;BME280;5220;43.192;23.284;2022-09-09T05:00:20;96975.16;;;22.44;66.86
10348;BME280;5220;43.192;23.284;2022-09-09T05:02:47;96971.06;;;22.41;67.66
10348;BME280;5220;43.192;23.284;2022-09-09T05:05:15;96961.19;;;22.35;68.00
10348;BME280;5220;43.192;23.284;2022-09-09T05:07:43;96961.53;;;22.32;68.46
10348;BME280;5220;43.192;23.284;2022-09-09T05:10:11;96971.50;;;22.30;69.13
10348;BME280;5220;43.192;23.284;2022-09-09T05:12:38;96974.53;;;22.27;69.90
10348;BME280;5220;43.192;23.284;2022-09-09T05:15:06;96976.56;;;22.25;70.25
10348;BME280;5220;43.192;23.284;2022-09-09T05:17:32;96979.84;;;22.27;70.97
10348;BME280;5220;43.192;23.284;2022-09-09T05:20:00;96972.88;;;22.26;71.57
10348;BME280;5220;43.192;23.284;2022-09-09T05:22:29;96968.41;;;22.27;72.15
10348;BME280;5220;43.192;23.284;2022-09-09T05:24:56;96969.22;;;22.27;72.87
10348;BME280;5220;43.192;23.284;2022-09-09T05:27:23;96971.72;;;22.29;73.35
10348;BME280;5220;43.192;23.284;2022-09-09T05:29:50;96968.25;;;22.28;73.87
10348;BME280;5220;43.192;23.284;2022-09-09T05:32:17;96968.88;;;22.30;74.51
10348;BME280;5220;43.192;23.284;2022-09-09T05:34:43;96963.56;;;22.30;74.58
10348;BME280;5220;43.192;23.284;2022-09-09T05:37:11;96968.25;;;22.28;74.41
10348;BME280;5220;43.192;23.284;2022-09-09T05:39:39;96971.16;;;22.33;75.11
10348;BME280;5220;43.192;23.284;2022-09-09T05:42:06;96966.50;;;22.35;75.82
10348;BME280;5220;43.192;23.284;2022-09-09T05:45:09;96968.13;;;22.36;75.97
10348;BME280;5220;43.192;23.284;2022-09-09T05:47:36;96970.31;;;22.33;76.10
10348;BME280;5220;43.192;23.284;2022-09-09T05:50:04;96975.44;;;22.34;76.25
10348;BME280;5220;43.192;23.284;2022-09-09T05:52:31;96982.03;;;22.38;74.96
10348;BME280;5220;43.192;23.284;2022-09-09T06:01:56;96984.00;;;22.51;76.03
10348;BME280;5220;43.192;23.284;2022-09-09T06:04:22;96989.31;;;22.51;76.29
10348;BME280;5220;43.192;23.284;2022-09-09T06:06:50;96982.84;;;22.54;76.07
10348;BME280;5220;43.192;23.284;2022-09-09T06:09:17;96981.06;;;22.61;75.51
10348;BME280;5220;43.192;23.284;2022-09-09T06:11:43;96984.84;;;22.66;74.95
10348;BME280;5220;43.192;23.284;2022-09-09T06:14:10;96984.09;;;22.72;74.32
10348;BME280;5220;43.192;23.284;2022-09-09T06:16:37;96983.59;;;22.83;75.42
10348;BME280;5220;43.192;23.284;2022-09-09T06:19:05;96982.69;;;22.91;75.24
10348;BME280;5220;43.192;23.284;2022-09-09T06:21:34;96988.69;;;22.99;74.47
10348;BME280;5220;43.192;23.284;2022-09-09T06:24:03;96982.06;;;23.10;75.08
10348;BME280;5220;43.192;23.284;2022-09-09T06:26:31;96990.06;;;23.17;73.00
10348;BME280;5220;43.192;23.284;2022-09-09T06:28:59;96987.94;;;23.27;72.42
10348;BME280;5220;43.192;23.284;2022-09-09T06:31:29;96985.97;;;23.35;72.25
10348;BME280;5220;43.192;23.284;2022-09-09T06:37:19;96980.25;;;23.53;71.57
10348;BME280;5220;43.192;23.284;2022-09-09T06:39:46;96981.84;;;23.54;70.55
10348;BME280;5220;43.192;23.284;2022-09-09T06:42:13;96979.53;;;23.66;72.23
10348;BME280;5220;43.192;23.284;2022-09-09T06:44:40;96977.53;;;23.74;71.90
10348;BME280;5220;43.192;23.284;2022-09-09T06:47:07;96976.75;;;23.80;71.50
10348;BME280;5220;43.192;23.284;2022-09-09T06:49:34;96974.78;;;23.89;71.17
10348;BME280;5220;43.192;23.284;2022-09-09T06:52:01;96980.34;;;23.94;70.00
10348;BME280;5220;43.192;23.284;2022-09-09T06:54:29;96979.50;;;23.93;69.99
10348;BME280;5220;43.192;23.284;2022-09-09T06:56:56;96977.50;;;24.02;68.65
10348;BME280;5220;43.192;23.284;2022-09-09T06:59:22;96980.09;;;24.17;68.20
10348;BME280;5220;43.192;23.284;2022-09-09T07:01:49;96974.00;;;24.29;67.74
10348;BME280;5220;43.192;23.284;2022-09-09T07:04:18;96977.72;;;24.28;69.13
10348;BME280;5220;43.192;23.284;2022-09-09T07:06:46;96975.75;;;24.43;69.60
10348;BME280;5220;43.192;23.284;2022-09-09T07:09:14;96974.31;;;24.47;67.32
10348;BME280;5220;43.192;23.284;2022-09-09T07:11:44;96978.44;;;24.50;65.14
10348;BME280;5220;43.192;23.284;2022-09-09T07:14:12;96978.47;;;24.56;64.27
10348;BME280;5220;43.192;23.284;2022-09-09T07:16:39;96990.97;;;24.69;64.93
10348;BME280;5220;43.192;23.284;2022-09-09T07:19:06;96986.91;;;24.73;65.08
10348;BME280;5220;43.192;23.284;2022-09-09T07:21:33;96980.13;;;24.71;62.19
10348;BME280;5220;43.192;23.284;2022-09-09T07:24:00;96977.34;;;24.85;65.05
10348;BME280;5220;43.192;23.284;2022-09-09T07:26:29;96961.59;;;24.84;64.69
10348;BME280;5220;43.192;23.284;2022-09-09T07:28:58;96969.38;;;24.92;63.84
10348;BME280;5220;43.192;23.284;2022-09-09T07:31:27;96970.63;;;24.96;63.14
10348;BME280;5220;43.192;23.284;2022-09-09T07:34:03;96981.72;;;25.06;62.65
10348;BME280;5220;43.192;23.284;2022-09-09T07:36:32;96970.03;;;25.13;62.84
10348;BME280;5220;43.192;23.284;2022-09-09T07:39:00;96965.53;;;25.14;62.35
10348;BME280;5220;43.192;23.284;2022-09-09T07:41:30;96975.56;;;25.25;62.88
10348;BME280;5220;43.192;23.284;2022-09-09T07:44:04;96983.38;;;25.33;63.31
10348;BME280;5220;43.192;23.284;2022-09-09T07:46:32;96977.44;;;25.31;63.53
10348;BME280;5220;43.192;23.284;2022-09-09T07:48:59;96993.22;;;25.39;63.03
10348;BME280;5220;43.192;23.284;2022-09-09T07:51:28;96996.50;;;25.41;63.16
10348;BME280;5220;43.192;23.284;2022-09-09T07:53:57;97000.59;;;25.44;63.53
10348;BME280;5220;43.192;23.284;2022-09-09T07:56:24;97010.03;;;25.46;65.38
10348;BME280;5220;43.192;23.284;2022-09-09T07:58:53;97009.69;;;25.56;66.59
10348;BME280;5220;43.192;23.284;2022-09-09T08:01:24;97004.13;;;25.57;67.39
10348;BME280;5220;43.192;23.284;2022-09-09T08:03:55;96999.41;;;25.59;66.99
10348;BME280;5220;43.192;23.284;2022-09-09T08:06:25;97009.25;;;25.65;67.56
10348;BME280;5220;43.192;23.284;2022-09-09T08:08:52;96995.53;;;25.69;67.64
10348;BME280;5220;43.192;23.284;2022-09-09T08:11:21;97003.13;;;25.72;67.79
10348;BME280;5220;43.192;23.284;2022-09-09T08:13:49;97009.66;;;25.76;67.18
10348;BME280;5220;43.192;23.284;2022-09-09T08:16:18;97005.75;;;25.78;66.48
10348;BME280;5220;43.192;23.284;2022-09-09T08:18:48;96998.81;;;25.84;66.79
10348;BME280;5220;43.192;23.284;2022-09-09T08:21:17;97007.59;;;25.91;66.51
10348;BME280;5220;43.192;23.284;2022-09-09T08:27:06;97001.84;;;26.00;66.51
10348;BME280;5220;43.192;23.284;2022-09-09T08:29:33;97003.91;;;26.05;66.55
10348;BME280;5220;43.192;23.284;2022-09-09T08:31:59;96991.81;;;26.09;66.27
10348;BME280;5220;43.192;23.284;2022-09-09T08:34:38;96995.06;;;26.11;65.49
10348;BME280;5220;43.192;23.284;2022-09-09T08:37:07;96997.13;;;26.15;65.52
10348;BME280;5220;43.192;23.284;2022-09-09T08:39:33;96990.78;;;26.16;65.62
10348;BME280;5220;43.192;23.284;2022-09-09T08:42:21;96986.88;;;26.19;64.60
10348;BME280;5220;43.192;23.284;2022-09-09T08:45:03;96986.88;;;26.19;65.04
10348;BME280;5220;43.192;23.284;2022-09-09T08:47:41;96995.28;;;26.16;66.31
10348;BME280;5220;43.192;23.284;2022-09-09T08:50:19;96993.66;;;26.22;66.04
10348;BME280;5220;43.192;23.284;2022-09-09T08:52:54;96996.69;;;26.25;63.75
10348;BME280;5220;43.192;23.284;2022-09-09T08:55:26;97003.50;;;26.28;63.76
10348;BME280;5220;43.192;23.284;2022-09-09T08:57:56;96995.66;;;26.33;63.59
10348;BME280;5220;43.192;23.284;2022-09-09T09:00:31;96990.72;;;26.36;63.19
10348;BME280;5220;43.192;23.284;2022-09-09T09:03:07;96987.66;;;26.39;62.14
10348;BME280;5220;43.192;23.284;2022-09-09T09:05:43;96987.81;;;26.44;62.56
10348;BME280;5220;43.192;23.284;2022-09-09T09:08:19;96993.56;;;26.48;59.83
10348;BME280;5220;43.192;23.284;2022-09-09T09:10:54;96993.16;;;26.51;60.61
10348;BME280;5220;43.192;23.284;2022-09-09T09:13:30;97001.56;;;26.54;61.05
10348;BME280;5220;43.192;23.284;2022-09-09T09:16:07;97005.63;;;26.57;61.36
10348;BME280;5220;43.192;23.284;2022-09-09T09:18:38;97007.28;;;26.58;62.78
10348;BME280;5220;43.192;23.284;2022-09-09T09:21:10;97003.19;;;26.55;62.36
10348;BME280;5220;43.192;23.284;2022-09-09T09:23:42;96995.63;;;26.52;60.71
10348;BME280;5220;43.192;23.284;2022-09-09T09:26:11;96996.41;;;26.53;60.90
10348;BME280;5220;43.192;23.284;2022-09-09T09:28:39;96997.88;;;26.55;61.12
10348;BME280;5220;43.192;23.284;2022-09-09T09:31:09;96989.44;;;26.52;61.92
10348;BME280;5220;43.192;23.284;2022-09-09T09:33:46;96999.72;;;26.55;62.29
10348;BME280;5220;43.192;23.284;2022-09-09T09:36:15;96999.28;;;26.58;63.83
10348;BME280;5220;43.192;23.284;2022-09-09T09:38:52;96989.44;;;26.52;64.63
10348;BME280;5220;43.192;23.284;2022-09-09T09:41:29;97007.72;;;26.55;65.32
10348;BME280;5220;43.192;23.284;2022-09-09T09:43:56;97006.91;;;26.48;63.53
10348;BME280;5220;43.192;23.284;2022-09-09T09:46:24;97009.19;;;26.38;63.07
10348;BME280;5220;43.192;23.284;2022-09-09T09:48:59;97020.91;;;26.43;64.22
10348;BME280;5220;43.192;23.284;2022-09-09T09:51:28;97021.09;;;26.42;63.72
10348;BME280;5220;43.192;23.284;2022-09-09T09:54:17;97007.75;;;26.42;64.65
10348;BME280;5220;43.192;23.284;2022-09-09T09:56:45;97018.41;;;26.42;65.64
10348;BME280;5220;43.192;23.284;2022-09-09T09:59:32;97023.97;;;26.40;64.56
10348;BME280;5220;43.192;23.284;2022-09-09T10:02:16;97021.09;;;26.42;65.38
10348;BME280;5220;43.192;23.284;2022-09-09T10:08:10;97022.75;;;26.36;66.22
10348;BME280;5220;43.192;23.284;2022-09-09T10:10:50;97028.50;;;26.33;66.63
10348;BME280;5220;43.192;23.284;2022-09-09T10:13:26;97035.28;;;26.29;66.37
10348;BME280;5220;43.192;23.284;2022-09-09T10:16:08;97033.03;;;26.26;66.17
10348;BME280;5220;43.192;23.284;2022-09-09T10:18:42;97030.16;;;26.21;66.30
10348;BME280;5220;43.192;23.284;2022-09-09T10:21:27;97039.59;;;26.17;67.11
10348;BME280;5220;43.192;23.284;2022-09-09T10:24:36;97037.31;;;26.14;67.07
10348;BME280;5220;43.192;23.284;2022-09-09T10:27:12;97039.81;;;26.09;68.28
10348;BME280;5220;43.192;23.284;2022-09-09T10:29:58;97041.41;;;26.10;68.07
10348;BME280;5220;43.192;23.284;2022-09-09T10:32:37;97054.97;;;26.08;67.78
10348;BME280;5220;43.192;23.284;2022-09-09T10:38:30;97058.06;;;26.05;69.90
10348;BME280;5220;43.192;23.284;2022-09-09T10:41:11;97054.56;;;25.92;69.70
10348;BME280;5220;43.192;23.284;2022-09-09T10:47:17;97071.16;;;25.94;70.28
10348;BME280;5220;43.192;23.284;2022-09-09T10:50:03;97068.13;;;25.90;70.66
10348;BME280;5220;43.192;23.284;2022-09-09T10:52:39;97062.56;;;25.92;71.68
10348;BME280;5220;43.192;23.284;2022-09-09T10:55:15;97065.63;;;25.89;71.26
10348;BME280;5220;43.192;23.284;2022-09-09T10:57:46;97059.88;;;25.79;71.61
10348;BME280;5220;43.192;23.284;2022-09-09T11:00:17;97061.13;;;25.83;72.26
10348;BME280;5220;43.192;23.284;2022-09-09T11:02:45;97049.22;;;25.79;70.77
10348;BME280;5220;43.192;23.284;2022-09-09T11:05:19;97057.84;;;25.81;71.36
10348;BME280;5220;43.192;23.284;2022-09-09T11:07:49;97045.13;;;25.70;71.63
10348;BME280;5220;43.192;23.284;2022-09-09T11:10:22;97044.31;;;25.76;73.25
10348;BME280;5220;43.192;23.284;2022-09-09T11:12:56;97036.72;;;25.73;71.76
10348;BME280;5220;43.192;23.284;2022-09-09T11:15:31;97024.22;;;25.66;72.46
10348;BME280;5220;43.192;23.284;2022-09-09T11:18:04;97027.69;;;25.67;71.67
10348;BME280;5220;43.192;23.284;2022-09-09T11:20:32;97022.97;;;25.62;71.30
10348;BME280;5220;43.192;23.284;2022-09-09T11:23:01;97024.84;;;25.62;71.96
10348;BME280;5220;43.192;23.284;2022-09-09T11:25:32;97022.59;;;25.59;71.34
10348;BME280;5220;43.192;23.284;2022-09-09T11:28:27;97023.78;;;25.56;70.87
10348;BME280;5220;43.192;23.284;2022-09-09T11:31:09;97024.19;;;25.53;71.85
10348;BME280;5220;43.192;23.284;2022-09-09T11:40:15;97014.72;;;25.44;73.81
10348;BME280;5220;43.192;23.284;2022-09-09T11:42:44;97002.25;;;25.45;73.00
10348;BME280;5220;43.192;23.284;2022-09-09T11:45:21;96994.66;;;25.35;73.41
10348;BME280;5220;43.192;23.284;2022-09-09T11:47:53;97002.63;;;25.35;72.92
10348;BME280;5220;43.192;23.284;2022-09-09T11:50:29;96992.19;;;25.34;73.65
10348;BME280;5220;43.192;23.284;2022-09-09T11:56:42;96986.25;;;25.32;74.18
10348;BME280;5220;43.192;23.284;2022-09-09T11:59:20;96969.22;;;25.26;74.69
10348;BME280;5220;43.192;23.284;2022-09-09T12:01:55;96964.91;;;25.25;74.51
10348;BME280;5220;43.192;23.284;2022-09-09T12:04:42;96960.63;;;25.24;75.07
10348;BME280;5220;43.192;23.284;2022-09-09T12:07:27;96963.09;;;25.26;75.46
10348;BME280;5220;43.192;23.284;2022-09-09T12:09:58;96954.91;;;25.27;75.06
10348;BME280;5220;43.192;23.284;2022-09-09T12:19:14;96943.19;;;25.02;76.29
10348;BME280;5220;43.192;23.284;2022-09-09T12:21:48;96943.38;;;24.87;77.17
10348;BME280;5220;43.192;23.284;2022-09-09T12:24:41;96926.63;;;25.00;76.48
10348;BME280;5220;43.192;23.284;2022-09-09T12:27:14;96928.88;;;25.03;76.69
10348;BME280;5220;43.192;23.284;2022-09-09T12:29:51;96925.38;;;24.96;77.22
10348;BME280;5220;43.192;23.284;2022-09-09T12:32:24;96928.88;;;25.03;77.40
10348;BME280;5220;43.192;23.284;2022-09-09T12:34:56;96926.59;;;25.13;76.90
10348;BME280;5220;43.192;23.284;2022-09-09T12:37:35;96924.78;;;25.27;76.28
10348;BME280;5220;43.192;23.284;2022-09-09T12:40:06;96908.81;;;25.20;76.50
10348;BME280;5220;43.192;23.284;2022-09-09T12:42:39;96890.75;;;25.22;75.57
10348;BME280;5220;43.192;23.284;2022-09-09T12:45:23;96891.59;;;25.36;74.58
10348;BME280;5220;43.192;23.284;2022-09-09T12:47:54;96916.19;;;25.51;74.13
10348;BME280;5220;43.192;23.284;2022-09-09T12:50:24;96913.53;;;25.64;74.17
10348;BME280;5220;43.192;23.284;2022-09-09T12:52:54;96917.63;;;25.66;73.42
10348;BME280;5220;43.192;23.284;2022-09-09T12:55:52;96911.28;;;25.67;71.39
10348;BME280;5220;43.192;23.284;2022-09-09T13:01:42;96907.97;;;25.72;72.68
10348;BME280;5220;43.192;23.284;2022-09-09T13:04:42;96899.78;;;25.74;72.06
10348;BME280;5220;43.192;23.284;2022-09-09T13:10:25;96896.69;;;25.83;73.04
10348;BME280;5220;43.192;23.284;2022-09-09T13:12:54;96891.94;;;25.92;71.81
10348;BME280;5220;43.192;23.284;2022-09-09T13:15:23;96889.47;;;25.97;72.67
10348;BME280;5220;43.192;23.284;2022-09-09T13:17:56;96897.47;;;25.97;73.15
10348;BME280;5220;43.192;23.284;2022-09-09T13:23:49;96895.53;;;26.30;70.98
10348;BME280;5220;43.192;23.284;2022-09-09T13:29:51;96895.13;;;26.33;69.70
10348;BME280;5220;43.192;23.284;2022-09-09T13:32:21;96900.06;;;26.30;69.96
10348;BME280;5220;43.192;23.284;2022-09-09T13:38:13;96897.38;;;26.30;73.52
10348;BME280;5220;43.192;23.284;2022-09-09T13:40:52;96911.94;;;26.34;72.85
10348;BME280;5220;43.192;23.284;2022-09-09T13:46:31;96892.25;;;26.28;73.21
10348;BME280;5220;43.192;23.284;2022-09-09T13:49:00;96888.75;;;26.34;73.22
10348;BME280;5220;43.192;23.284;2022-09-09T13:51:33;96894.28;;;26.39;73.01
10348;BME280;5220;43.192;23.284;2022-09-09T13:54:09;96893.03;;;26.42;72.09
10348;BME280;5220;43.192;23.284;2022-09-09T13:56:40;96899.78;;;26.44;70.76
10348;BME280;5220;43.192;23.284;2022-09-09T14:02:30;96894.66;;;26.43;70.90
10348;BME280;5220;43.192;23.284;2022-09-09T14:05:15;96896.69;;;26.47;70.96
10348;BME280;5220;43.192;23.284;2022-09-09T14:07:43;96898.75;;;26.45;70.82
10348;BME280;5220;43.192;23.284;2022-09-09T14:10:11;96890.75;;;26.45;69.85
10348;BME280;5220;43.192;23.284;2022-09-09T14:12:53;96886.28;;;26.39;69.71
10348;BME280;5220;43.192;23.284;2022-09-09T14:18:43;96888.59;;;26.23;69.55
10348;BME280;5220;43.192;23.284;2022-09-09T14:21:09;96884.50;;;26.20;70.39
10348;BME280;5220;43.192;23.284;2022-09-09T14:23:38;96886.97;;;26.15;70.43
10348;BME280;5220;43.192;23.284;2022-09-09T14:26:08;96882.25;;;26.10;69.83
10348;BME280;5220;43.192;23.284;2022-09-09T14:28:35;96888.19;;;26.12;69.43
10348;BME280;5220;43.192;23.284;2022-09-09T14:31:26;96886.78;;;26.16;69.79
10348;BME280;5220;43.192;23.284;2022-09-09T14:37:17;96884.72;;;26.12;70.57
10348;BME280;5220;43.192;23.284;2022-09-09T14:39:44;96892.91;;;26.10;71.16
10348;BME280;5220;43.192;23.284;2022-09-09T14:42:12;96875.50;;;26.01;71.10
10348;BME280;5220;43.192;23.284;2022-09-09T14:45:12;96883.94;;;25.92;70.92
10348;BME280;5220;43.192;23.284;2022-09-09T14:47:39;96890.69;;;25.94;70.12
10348;BME280;5220;43.192;23.284;2022-09-09T14:50:22;96878.44;;;25.87;70.48
10348;BME280;5220;43.192;23.284;2022-09-09T14:56:14;96884.19;;;25.90;70.92
10348;BME280;5220;43.192;23.284;2022-09-09T14:59:10;96882.09;;;25.92;71.72
10348;BME280;5220;43.192;23.284;2022-09-09T15:01:38;96878.84;;;25.90;70.94
10348;BME280;5220;43.192;23.284;2022-09-09T15:04:41;96887.84;;;25.89;71.36
10348;BME280;5220;43.192;23.284;2022-09-09T15:07:07;96893.00;;;25.84;71.25